Time;durP1;ratioP1;P1;durP2;ratioP2;P2;SDS_P1;SDS_P2;PMS_P1;PMS_P2;Temp;Humidity;BMP_temperature;BMP_pressure;BME280_temperature;BME280_humidity;BME280_pressure;Samples;Min_cycle;Max_cycle;Signal;HPM_P1;HPM_P2
2023/01/13 00:00:20;;;;;;;1.20;0.80;;;;;;;8.66;93.25;153582.66;4988893;28;20937;-83
2023/01/13 00:02:48;;;;;;;1.30;0.60;;;;;;;8.71;91.73;153595.56;4991645;28;20863;-82
2023/01/13 00:05:15;;;;;;;1.20;0.80;;;;;;;8.68;94.55;153587.81;4992431;28;20446;-82
2023/01/13 00:07:42;;;;;;;2.40;0.60;;;;;;;8.67;92.30;153585.22;4989644;28;20450;-83
2023/01/13 00:10:10;;;;;;;2.13;0.70;;;;;;;8.79;91.21;153617.50;4990022;28;20545;-82
2023/01/13 00:12:39;;;;;;;1.57;0.63;;;;;;;8.68;92.80;153589.13;4975633;28;20451;-82
2023/01/13 00:15:07;;;;;;;1.50;0.70;;;;;;;8.68;92.45;153587.81;4989716;28;20497;-83
2023/01/13 00:17:34;;;;;;;1.50;0.70;;;;;;;8.75;92.30;153605.91;4992997;28;20466;-82
2023/01/13 00:20:02;;;;;;;1.87;0.63;;;;;;;8.70;94.15;153594.28;4991023;28;20467;-83
2023/01/13 00:22:29;;;;;;;3.33;1.10;;;;;;;8.68;93.70;153589.13;4991178;28;20461;-83
2023/01/13 00:24:57;;;;;;;1.10;0.87;;;;;;;8.73;93.61;153600.72;4988937;28;20505;-82
2023/01/13 00:27:24;;;;;;;1.83;0.43;;;;;;;8.72;92.80;153599.44;4975715;28;20458;-82
2023/01/13 00:29:51;;;;;;;2.07;0.73;;;;;;;8.75;92.31;153607.19;4987369;28;20458;-83
2023/01/13 00:32:17;;;;;;;0.90;0.50;;;;;;;8.68;94.02;153587.81;4992507;28;20529;-83
2023/01/13 00:34:44;;;;;;;2.33;1.07;;;;;;;8.65;94.14;153580.03;4989443;28;20470;-83
2023/01/13 00:37:13;;;;;;;0.90;0.50;;;;;;;8.65;93.75;153580.03;4976073;28;20819;-83
2023/01/13 00:39:40;;;;;;;2.30;0.50;;;;;;;8.66;93.08;153582.66;4987437;28;20451;-82
2023/01/13 00:44:51;;;;;;;1.03;0.60;;;;;;;8.69;92.23;153590.38;4983070;28;20454;-83
2023/01/13 00:47:18;;;;;;;1.43;0.60;;;;;;;8.71;93.36;153596.81;4991129;28;21020;-83
2023/01/13 00:49:44;;;;;;;2.93;0.90;;;;;;;8.74;91.99;153604.59;4984016;28;20538;-83
2023/01/13 00:52:12;;;;;;;1.87;0.97;;;;;;;8.72;91.47;153598.13;5004887;28;20474;-83
2023/01/13 00:54:39;;;;;;;1.57;0.70;;;;;;;8.74;91.51;153603.28;4983671;28;20549;-83
2023/01/13 00:57:06;;;;;;;1.40;0.70;;;;;;;8.72;91.59;153598.13;4981669;28;20898;-83
2023/01/13 00:59:32;;;;;;;1.37;0.70;;;;;;;8.79;92.54;153616.25;4984497;28;21167;-83
2023/01/13 01:01:59;;;;;;;1.40;0.60;;;;;;;8.77;93.51;153612.34;4989783;28;20459;-84
2023/01/13 01:04:26;;;;;;;2.50;0.73;;;;;;;8.71;92.17;153595.56;4991193;28;20531;-83
2023/01/13 01:06:52;;;;;;;2.17;0.77;;;;;;;8.72;93.80;153598.13;4991915;28;20433;-83
2023/01/13 01:09:21;;;;;;;1.17;0.60;;;;;;;8.74;92.49;153604.59;4985840;28;20442;-83
2023/01/13 01:11:47;;;;;;;2.10;0.70;;;;;;;8.74;93.21;153603.28;4990924;28;20459;-83
2023/01/13 01:14:14;;;;;;;0.97;0.60;;;;;;;8.78;92.72;153614.97;4986874;28;20458;-83
2023/01/13 01:16:41;;;;;;;1.30;0.60;;;;;;;8.80;92.13;153620.13;4984899;28;20849;-83
2023/01/13 01:19:08;;;;;;;2.13;0.60;;;;;;;8.81;92.85;153622.72;4988526;28;20518;-83
2023/01/13 01:21:35;;;;;;;1.00;0.63;;;;;;;8.83;91.70;153627.88;5006785;28;20577;-83
2023/01/13 01:24:03;;;;;;;1.10;0.60;;;;;;;8.80;91.16;153618.81;4989462;28;20494;-83
2023/01/13 01:26:32;;;;;;;1.10;0.63;;;;;;;8.83;90.89;153627.88;4993015;28;20454;-83
2023/01/13 01:29:00;;;;;;;2.30;0.70;;;;;;;8.87;91.50;153636.94;4992542;28;20483;-83
2023/01/13 01:31:30;;;;;;;1.87;0.50;;;;;;;8.87;91.59;153638.22;4987382;28;20458;-83
2023/01/13 01:33:56;;;;;;;2.23;0.70;;;;;;;8.84;91.44;153629.19;4988470;28;20541;-82
2023/01/13 01:36:25;;;;;;;0.90;0.60;;;;;;;8.89;93.51;153642.13;4991297;28;20907;-83
2023/01/13 01:38:52;;;;;;;0.93;0.50;;;;;;;8.92;91.38;153649.88;4990863;28;20438;-83
2023/01/13 01:41:20;;;;;;;2.00;1.00;;;;;;;8.95;92.84;153657.59;5001797;28;20542;-83
2023/01/13 01:44:01;;;;;;;1.03;0.53;;;;;;;8.93;92.40;153653.72;5005209;28;20478;-83
2023/01/13 01:46:29;;;;;;;2.33;0.90;;;;;;;8.95;92.43;153657.59;4992643;28;20531;-83
2023/01/13 01:49:00;;;;;;;2.67;0.80;;;;;;;8.88;92.18;153640.81;4988355;28;20455;-83
2023/01/13 01:51:28;;;;;;;0.90;0.50;;;;;;;8.96;92.40;153660.19;5002531;28;20552;-82
2023/01/13 01:53:56;;;;;;;1.43;0.70;;;;;;;8.89;92.83;153643.41;4975020;28;20467;-83
2023/01/13 01:56:22;;;;;;;1.53;0.60;;;;;;;8.92;94.21;153649.88;4975284;28;20482;-83
2023/01/13 01:58:52;;;;;;;1.17;0.70;;;;;;;8.95;92.84;153657.59;4987974;28;20458;-83
2023/01/13 02:01:18;;;;;;;1.30;0.80;;;;;;;8.92;93.00;153649.88;4982423;28;20463;-83
2023/01/13 02:03:48;;;;;;;1.80;0.63;;;;;;;8.93;93.47;153652.44;4994677;28;20844;-83
2023/01/13 02:06:15;;;;;;;2.67;0.83;;;;;;;8.95;93.50;153657.59;5008656;28;20455;-83
2023/01/13 02:08:41;;;;;;;1.90;0.93;;;;;;;8.95;94.09;153657.59;4990320;28;20455;-83
2023/01/13 02:12:28;;;;;;;1.33;0.60;;;;;;;8.98;93.25;153665.34;5002380;28;20869;-83
2023/01/13 02:14:12;;;;;;;0.90;0.50;;;;;;;9.03;93.00;153678.28;5006598;28;20445;-83
2023/01/13 02:16:46;;;;;;;1.97;0.80;;;;;;;9.03;93.15;153678.28;4990069;28;20854;-83
2023/01/13 02:19:30;;;;;;;1.80;0.67;;;;;;;9.01;92.99;153673.13;5005380;28;20486;-83
2023/01/13 02:22:15;;;;;;;1.50;0.60;;;;;;;8.95;92.76;153657.59;4982599;28;20451;-83
2023/01/13 02:25:05;;;;;;;1.20;0.60;;;;;;;8.95;92.14;153657.59;4977681;28;20550;-85
2023/01/13 02:28:10;;;;;;;1.93;0.60;;;;;;;8.91;94.97;153647.28;4991640;28;20857;-83
2023/01/13 02:33:42;;;;;;;2.47;1.43;;;;;;;8.96;93.56;153661.50;4936746;28;20444;-83
2023/01/13 02:36:15;;;;;;;2.70;1.40;;;;;;;9.02;93.65;153675.72;4975034;28;20492;-83
2023/01/13 02:38:49;;;;;;;1.17;0.70;;;;;;;8.97;92.98;153662.81;5005357;28;20455;-83
2023/01/13 02:44:06;;;;;;;1.20;0.90;;;;;;;8.96;92.50;153660.19;5001855;28;20520;-83
2023/01/13 02:46:39;;;;;;;1.40;0.73;;;;;;;8.89;94.55;153642.13;5003522;28;20554;-83
2023/01/13 02:49:08;;;;;;;1.83;0.97;;;;;;;8.93;94.46;153652.44;4986419;28;21017;-83
2023/01/13 02:51:35;;;;;;;1.23;0.70;;;;;;;8.92;93.65;153649.88;4993358;28;20460;-83
2023/01/13 02:54:04;;;;;;;1.30;0.50;;;;;;;8.85;93.41;153631.75;4986811;28;20538;-83
2023/01/13 02:56:33;;;;;;;1.23;0.70;;;;;;;8.82;94.85;153625.28;4982853;28;20585;-83
2023/01/13 02:59:00;;;;;;;1.50;0.67;;;;;;;8.83;93.90;153626.59;4989125;28;20456;-83
2023/01/13 03:01:27;;;;;;;1.70;1.10;;;;;;;8.94;94.29;153656.34;4992262;28;20491;-83
2023/01/13 03:03:55;;;;;;;2.03;0.90;;;;;;;8.99;92.87;153669.25;4994426;28;20451;-83
2023/01/13 03:06:33;;;;;;;1.47;0.70;;;;;;;8.98;93.33;153666.66;4990542;28;20884;-83
2023/01/13 03:09:04;;;;;;;2.40;1.03;;;;;;;8.92;93.65;153651.13;5001252;28;20459;-83
2023/01/13 03:11:35;;;;;;;2.53;0.90;;;;;;;8.97;93.30;153662.81;4988443;28;20814;-83
2023/01/13 03:14:09;;;;;;;1.53;0.70;;;;;;;9.02;92.17;153677.03;4982634;28;20450;-82
2023/01/13 03:16:53;;;;;;;1.27;0.83;;;;;;;9.01;92.48;153674.44;5001187;28;20831;-83
2023/01/13 03:19:31;;;;;;;1.30;0.80;;;;;;;9.01;92.48;153673.13;4989535;28;21027;-83
2023/01/13 03:22:02;;;;;;;3.83;0.90;;;;;;;8.93;95.79;153653.72;4987117;28;20821;-82
2023/01/13 03:24:34;;;;;;;1.30;0.63;;;;;;;8.98;93.61;153666.66;4987548;28;20447;-83
2023/01/13 03:27:05;;;;;;;0.90;0.40;;;;;;;8.97;93.81;153662.81;4977007;28;20542;-83
2023/01/13 03:29:35;;;;;;;1.27;0.70;;;;;;;9.00;93.76;153670.56;5000332;28;20451;-83
2023/01/13 03:32:05;;;;;;;0.80;0.43;;;;;;;8.95;93.23;153657.59;4988771;28;20549;-83
2023/01/13 03:34:37;;;;;;;1.00;0.50;;;;;;;8.91;94.53;153648.56;5014304;28;20925;-83
2023/01/13 03:37:07;;;;;;;1.60;0.70;;;;;;;8.89;94.86;153643.41;5016756;28;20537;-83
2023/01/13 03:39:36;;;;;;;2.10;0.97;;;;;;;8.88;95.51;153639.50;4988787;28;20737;-83
2023/01/13 03:42:05;;;;;;;1.87;0.50;;;;;;;8.90;93.69;153644.66;4988534;28;20837;-83
2023/01/13 03:44:32;;;;;;;7.13;0.70;;;;;;;8.97;94.71;153662.81;4989389;28;20439;-83
2023/01/13 03:47:03;;;;;;;1.50;0.90;;;;;;;8.94;93.73;153655.03;4987446;28;20443;-82
2023/01/13 03:49:36;;;;;;;2.20;0.90;;;;;;;8.98;94.13;153666.66;4985514;28;20450;-82
2023/01/13 03:52:05;;;;;;;1.80;0.80;;;;;;;8.90;94.17;153644.66;4988808;28;20447;-82
2023/01/13 03:54:35;;;;;;;2.50;0.87;;;;;;;8.87;95.38;153638.22;4988538;28;20446;-82
2023/01/13 03:57:05;;;;;;;0.97;0.63;;;;;;;8.82;96.20;153623.97;4984246;28;20977;-83
2023/01/13 03:59:37;;;;;;;1.60;0.83;;;;;;;8.86;96.98;153634.34;4985609;28;20454;-83
2023/01/13 04:02:07;;;;;;;1.63;0.60;;;;;;;8.78;95.68;153613.66;4982266;28;20803;-83
2023/01/13 04:04:39;;;;;;;1.17;0.60;;;;;;;8.76;96.25;153608.50;4988362;28;20458;-83
2023/01/13 04:07:13;;;;;;;1.50;0.87;;;;;;;8.74;96.42;153603.28;4986893;28;20888;-83
2023/01/13 04:09:47;;;;;;;1.10;0.70;;;;;;;8.73;96.40;153600.72;4978505;28;20461;-83
2023/01/13 04:12:17;;;;;;;1.23;0.60;;;;;;;8.73;97.59;153600.72;4990457;28;20445;-83
2023/01/13 04:14:44;;;;;;;1.43;1.00;;;;;;;8.75;97.70;153605.91;4989409;28;20436;-83
2023/01/13 04:17:11;;;;;;;1.03;0.50;;;;;;;8.73;96.79;153602.03;5003726;28;20553;-83
2023/01/13 04:19:39;;;;;;;2.10;0.60;;;;;;;8.76;96.50;153608.50;4990247;28;20486;-83
2023/01/13 04:22:06;;;;;;;3.20;0.90;;;;;;;8.71;97.35;153595.56;4987832;28;20466;-83
2023/01/13 04:24:33;;;;;;;1.20;0.63;;;;;;;8.74;97.81;153603.28;4988159;28;20455;-83
2023/01/13 04:26:59;;;;;;;2.07;0.53;;;;;;;8.74;95.99;153603.28;4988093;28;20796;-83
2023/01/13 04:29:26;;;;;;;0.90;0.47;;;;;;;8.82;95.37;153623.97;4988477;28;20454;-83
2023/01/13 04:31:53;;;;;;;0.80;0.40;;;;;;;8.79;95.56;153616.25;4990978;28;20853;-84
2023/01/13 04:34:19;;;;;;;1.10;0.60;;;;;;;8.83;96.08;153626.59;4989245;28;20486;-83
2023/01/13 04:36:47;;;;;;;0.80;0.60;;;;;;;8.93;95.23;153653.72;4967634;28;20486;-83
2023/01/13 04:39:14;;;;;;;1.47;0.70;;;;;;;8.91;95.36;153647.28;4981665;28;20447;-83
2023/01/13 04:42:00;;;;;;;1.50;0.77;;;;;;;8.87;95.95;153636.94;5001094;28;20463;-83
2023/01/13 04:44:26;;;;;;;1.13;0.50;;;;;;;8.84;95.45;153629.19;4988140;28;20572;-83
2023/01/13 04:46:53;;;;;;;1.43;0.60;;;;;;;8.82;94.79;153623.97;4990418;28;20449;-83
2023/01/13 04:49:20;;;;;;;2.40;0.80;;;;;;;8.79;95.53;153616.25;4990764;28;20460;-83
2023/01/13 04:51:48;;;;;;;1.20;0.47;;;;;;;8.88;95.50;153639.50;4975239;28;20936;-83
2023/01/13 04:54:15;;;;;;;1.43;0.50;;;;;;;8.96;93.24;153660.19;4990971;28;20451;-83
2023/01/13 04:56:42;;;;;;;1.80;0.60;;;;;;;8.98;95.86;153665.34;5008032;28;20477;-83
2023/01/13 04:59:10;;;;;;;1.90;0.70;;;;;;;8.96;95.40;153660.19;4991145;28;20454;-83
2023/01/13 05:01:36;;;;;;;1.37;0.70;;;;;;;9.00;92.88;153670.56;4982887;28;20451;-83
2023/01/13 05:04:03;;;;;;;1.80;0.50;;;;;;;9.02;93.74;153675.72;4992804;28;20960;-83
2023/01/13 05:06:30;;;;;;;0.90;0.50;;;;;;;8.99;94.94;153667.97;4984447;28;20462;-83
2023/01/13 05:08:58;;;;;;;2.37;0.80;;;;;;;9.04;93.43;153680.88;4992207;28;20446;-83
2023/01/13 05:17:01;;;;;;;1.00;0.50;;;;;;;9.05;94.42;153683.50;4983456;28;20998;-83
2023/01/13 05:19:28;;;;;;;1.33;0.50;;;;;;;9.03;94.58;153678.28;4985723;28;20529;-83
2023/01/13 05:27:25;;;;;;;1.67;0.77;;;;;;;9.01;93.13;153673.13;4987201;28;20932;-83
2023/01/13 05:29:52;;;;;;;1.03;0.43;;;;;;;9.03;93.47;153679.59;4989169;28;20529;-83
2023/01/13 05:32:19;;;;;;;1.57;0.60;;;;;;;9.01;94.27;153673.13;4988864;28;20508;-83
2023/01/13 05:34:46;;;;;;;0.80;0.43;;;;;;;8.95;94.19;153658.91;5000563;28;20471;-84
2023/01/13 05:37:18;;;;;;;1.37;0.63;;;;;;;8.99;95.59;153667.97;4999609;28;20478;-84
2023/01/13 05:45:17;;;;;;;1.07;0.57;;;;;;;9.03;96.04;153678.28;4998623;28;20462;-84
2023/01/13 05:47:44;;;;;;;1.97;0.50;;;;;;;9.03;93.43;153678.28;4996992;28;20441;-83
2023/01/13 05:50:10;;;;;;;1.70;0.63;;;;;;;8.99;94.12;153667.97;4999963;28;20453;-83
2023/01/13 05:52:37;;;;;;;1.07;0.40;;;;;;;9.02;93.16;153677.03;5010291;28;20538;-83
2023/01/13 05:55:06;;;;;;;2.80;0.50;;;;;;;9.03;93.92;153679.59;4990243;28;20447;-83
2023/01/13 05:57:33;;;;;;;1.03;0.30;;;;;;;9.13;93.22;153704.19;4971828;28;20666;-83
2023/01/13 05:59:59;;;;;;;0.80;0.43;;;;;;;9.11;95.54;153698.97;4986893;28;20542;-83
2023/01/13 06:02:26;;;;;;;0.90;0.40;;;;;;;9.04;94.81;153682.19;4972167;28;20877;-83
2023/01/13 06:04:53;;;;;;;0.90;0.50;;;;;;;9.07;92.76;153688.66;4990921;28;20454;-83
2023/01/13 06:07:19;;;;;;;2.47;0.60;;;;;;;9.09;92.12;153693.81;4982800;28;20458;-83
2023/01/13 06:09:46;;;;;;;1.20;0.40;;;;;;;9.15;93.08;153709.34;4979830;28;20447;-83
2023/01/13 06:12:14;;;;;;;1.20;0.80;;;;;;;9.14;93.69;153706.75;4998785;28;21015;-83
2023/01/13 06:14:41;;;;;;;1.17;0.70;;;;;;;9.10;93.13;153696.41;4995830;28;20447;-83
2023/01/13 06:17:08;;;;;;;1.00;0.50;;;;;;;9.12;93.04;153701.59;4996912;28;20485;-83
2023/01/13 06:19:35;;;;;;;0.87;0.37;;;;;;;9.14;93.74;153708.03;4995834;28;20443;-83
2023/01/13 06:22:09;;;;;;;2.43;1.30;;;;;;;9.13;93.35;153704.19;4996078;28;20485;-82
2023/01/13 06:24:36;;;;;;;1.10;0.40;;;;;;;9.12;95.15;153702.88;4981419;28;20447;-82
2023/01/13 06:27:04;;;;;;;1.47;0.50;;;;;;;9.22;92.49;153727.44;4996559;28;20451;-82
2023/01/13 06:29:32;;;;;;;1.90;0.87;;;;;;;9.13;93.25;153704.19;4980213;28;20551;-82
2023/01/13 06:32:01;;;;;;;1.93;1.60;;;;;;;9.13;93.96;153704.19;4995982;28;20455;-82
2023/01/13 06:34:27;;;;;;;1.30;0.73;;;;;;;9.09;93.24;153693.81;4992816;28;20565;-82
2023/01/13 06:36:55;;;;;;;1.70;0.50;;;;;;;9.14;93.01;153706.75;4992766;28;20501;-82
2023/01/13 06:39:24;;;;;;;1.40;1.00;;;;;;;9.18;93.51;153717.13;4994371;28;20945;-82
2023/01/13 06:44:37;;;;;;;1.90;0.53;;;;;;;9.13;95.31;153705.44;4974273;28;20458;-84
2023/01/13 06:47:04;;;;;;;0.97;0.50;;;;;;;9.13;94.36;153705.44;4987964;28;20490;-82
2023/01/13 06:49:31;;;;;;;0.87;0.47;;;;;;;9.19;93.00;153719.69;5001549;28;20457;-82
2023/01/13 06:51:58;;;;;;;1.07;0.57;;;;;;;9.10;95.36;153697.72;4987296;28;20458;-82
2023/01/13 06:54:25;;;;;;;1.20;0.60;;;;;;;9.05;95.03;153683.50;4977640;28;20553;-82
2023/01/13 06:56:51;;;;;;;0.93;0.33;;;;;;;9.15;93.64;153709.34;4994252;28;20451;-82
2023/01/13 06:59:18;;;;;;;1.23;0.40;;;;;;;9.10;94.79;153696.41;4993792;28;20454;-82
2023/01/13 07:01:46;;;;;;;1.10;0.60;;;;;;;9.08;95.52;153691.25;4993896;28;20459;-82
2023/01/13 07:04:13;;;;;;;0.80;0.43;;;;;;;9.05;95.86;153683.50;4979430;28;20454;-82
2023/01/13 07:06:40;;;;;;;0.90;0.40;;;;;;;9.04;94.59;153680.88;4997177;28;20456;-81
2023/01/13 07:09:06;;;;;;;1.07;0.50;;;;;;;9.04;97.03;153680.88;4978375;28;20901;-82
2023/01/13 07:11:33;;;;;;;1.03;0.50;;;;;;;9.02;94.68;153675.72;4978448;28;20454;-84
2023/01/13 07:16:45;;;;;;;0.80;0.30;;;;;;;8.99;94.61;153667.97;4993321;28;20511;-84
2023/01/13 07:19:14;;;;;;;0.70;0.40;;;;;;;9.03;94.53;153679.59;4979357;28;20444;-84
2023/01/13 07:21:41;;;;;;;0.90;0.40;;;;;;;8.98;97.53;153665.34;4995704;28;20451;-84
2023/01/13 07:24:07;;;;;;;0.87;0.37;;;;;;;8.93;96.06;153653.72;4981741;28;20482;-84
2023/01/13 07:26:34;;;;;;;1.50;0.40;;;;;;;8.93;95.59;153653.72;4997242;28;20544;-84
2023/01/13 07:29:01;;;;;;;0.77;0.37;;;;;;;8.93;95.71;153652.44;4995200;28;20481;-84
2023/01/13 07:31:28;;;;;;;0.90;0.43;;;;;;;8.93;95.76;153653.72;4979892;28;20562;-84
2023/01/13 07:33:54;;;;;;;0.73;0.30;;;;;;;8.95;94.68;153657.59;4991494;28;20486;-84
2023/01/13 07:36:23;;;;;;;1.00;0.40;;;;;;;8.92;96.67;153649.88;4994294;28;20806;-84
2023/01/13 07:38:49;;;;;;;1.10;0.43;;;;;;;8.92;95.66;153649.88;4993698;28;20882;-84
2023/01/13 07:44:03;;;;;;;0.70;0.30;;;;;;;8.97;98.05;153664.09;4993678;28;20478;-84
2023/01/13 07:46:30;;;;;;;1.00;0.63;;;;;;;9.00;95.48;153670.56;4994860;28;20504;-84
2023/01/13 07:48:57;;;;;;;0.73;0.33;;;;;;;8.97;95.59;153662.81;4994733;28;20542;-84
2023/01/13 07:51:25;;;;;;;1.20;0.40;;;;;;;9.00;95.92;153671.81;4994310;28;20949;-84
2023/01/13 07:53:52;;;;;;;1.10;0.63;;;;;;;9.10;95.02;153697.72;4995831;28;20459;-84
2023/01/13 07:56:19;;;;;;;0.93;0.40;;;;;;;9.07;94.73;153688.66;4995091;28;20462;-83
2023/01/13 07:58:49;;;;;;;1.70;0.40;;;;;;;9.07;95.61;153688.66;4979370;28;20479;-82
2023/01/13 08:01:17;;;;;;;0.90;0.47;;;;;;;9.08;94.39;153691.25;4991555;28;21032;-82
2023/01/13 08:03:44;;;;;;;0.83;0.33;;;;;;;9.06;95.78;153687.34;4976001;28;22040;-84
2023/01/13 08:06:12;;;;;;;0.97;0.47;;;;;;;9.09;96.39;153693.81;4984739;28;20454;-82
2023/01/13 08:08:40;;;;;;;0.70;0.30;;;;;;;9.13;97.06;153704.19;4979386;28;20543;-83
2023/01/13 08:11:08;;;;;;;1.30;0.33;;;;;;;9.11;96.01;153698.97;4983161;28;20561;-82
2023/01/13 08:13:35;;;;;;;0.70;0.30;;;;;;;9.10;95.80;153696.41;4993200;28;20452;-82
2023/01/13 08:16:03;;;;;;;1.67;0.40;;;;;;;9.19;96.34;153719.69;4996529;28;20566;-83
2023/01/13 08:18:31;;;;;;;0.90;0.33;;;;;;;9.22;97.50;153726.13;4996293;28;20557;-82
2023/01/13 08:21:01;;;;;;;0.90;0.30;;;;;;;9.31;94.81;153750.75;5003748;28;20536;-82
2023/01/13 08:23:28;;;;;;;1.03;0.40;;;;;;;9.30;97.17;153746.84;4984696;28;20454;-82
2023/01/13 08:25:59;;;;;;;1.60;0.43;;;;;;;9.28;99.75;153741.69;4990203;28;20458;-83
2023/01/13 08:28:26;;;;;;;0.70;0.30;;;;;;;9.31;98.61;153750.75;4995758;28;20454;-82
2023/01/13 08:30:56;;;;;;;1.20;0.40;;;;;;;9.41;99.02;153775.31;4995716;28;20813;-82
2023/01/13 08:33:22;;;;;;;0.73;0.30;;;;;;;9.46;98.54;153789.53;4996167;28;20494;-82
2023/01/13 08:35:51;;;;;;;0.77;0.40;;;;;;;9.49;98.23;153796.00;5004236;28;20565;-82
2023/01/13 08:38:18;;;;;;;0.60;0.20;;;;;;;9.45;100.00;153786.94;4984081;28;20481;-82
2023/01/13 08:40:45;;;;;;;1.00;0.50;;;;;;;9.41;100.00;153776.59;4999181;28;20556;-82
2023/01/13 08:43:13;;;;;;;0.93;0.50;;;;;;;9.31;100.00;153750.75;4984010;28;20469;-83
2023/01/13 08:45:39;;;;;;;0.90;0.33;;;;;;;9.26;100.00;153736.50;4990207;28;20813;-82
2023/01/13 08:48:06;;;;;;;1.00;0.40;;;;;;;9.24;100.00;153731.34;5001094;28;20451;-82
2023/01/13 08:50:33;;;;;;;1.57;0.57;;;;;;;9.18;100.00;153717.13;4986151;28;20476;-83
2023/01/13 08:53:00;;;;;;;0.80;0.40;;;;;;;9.14;100.00;153708.03;4988619;28;20570;-85
2023/01/13 08:55:26;;;;;;;1.37;0.60;;;;;;;9.15;100.00;153709.34;5003835;28;20589;-83
2023/01/13 08:57:53;;;;;;;0.93;0.43;;;;;;;9.15;100.00;153709.34;4995226;28;20466;-83
2023/01/13 09:00:21;;;;;;;1.37;0.40;;;;;;;9.21;100.00;153724.88;4980798;28;20589;-83
2023/01/13 09:02:48;;;;;;;1.00;0.50;;;;;;;9.21;100.00;153724.88;4997761;28;20504;-82
2023/01/13 09:05:15;;;;;;;0.90;0.40;;;;;;;9.23;100.00;153730.03;4982675;28;20458;-83
2023/01/13 09:07:42;;;;;;;1.00;0.60;;;;;;;9.20;100.00;153722.28;4996812;28;20446;-83
2023/01/13 09:10:09;;;;;;;0.90;0.40;;;;;;;9.20;100.00;153722.28;4996065;28;21023;-82
2023/01/13 09:15:22;;;;;;;1.30;0.90;;;;;;;9.20;100.00;153722.28;4997508;28;20636;-84
2023/01/13 09:17:48;;;;;;;1.00;0.70;;;;;;;9.15;100.00;153709.34;4994055;28;20823;-83
2023/01/13 09:20:15;;;;;;;0.80;0.40;;;;;;;9.08;100.00;153691.25;4999002;28;20531;-83
2023/01/13 09:22:42;;;;;;;0.80;0.50;;;;;;;9.05;100.00;153683.50;4983014;28;20446;-83
2023/01/13 09:25:11;;;;;;;0.80;0.30;;;;;;;9.05;100.00;153683.50;4979749;28;20482;-83
2023/01/13 09:27:38;;;;;;;1.70;0.50;;;;;;;8.98;100.00;153665.34;4996943;28;20454;-83
2023/01/13 09:30:06;;;;;;;0.70;0.33;;;;;;;8.93;100.00;153653.72;4997391;28;20454;-83
2023/01/13 09:32:34;;;;;;;1.97;0.60;;;;;;;8.95;100.00;153657.59;4999571;28;20791;-83
2023/01/13 09:34:59;;;;;;;0.77;0.33;;;;;;;8.84;100.00;153629.19;4980590;28;20553;-83
2023/01/13 09:37:27;;;;;;;0.70;0.27;;;;;;;8.76;100.00;153608.50;4983250;28;20450;-83
2023/01/13 09:39:54;;;;;;;1.10;0.50;;;;;;;8.71;100.00;153595.56;4997561;28;20939;-82
2023/01/13 09:45:12;;;;;;;0.80;0.40;;;;;;;8.73;100.00;153602.03;4997863;28;20462;-83
2023/01/13 09:47:45;;;;;;;0.77;0.30;;;;;;;8.68;100.00;153587.81;4995030;28;20541;-82
2023/01/13 09:50:26;;;;;;;0.80;0.37;;;;;;;8.64;100.00;153577.44;4981757;28;20450;-82
2023/01/13 09:52:53;;;;;;;1.10;0.40;;;;;;;8.79;100.00;153616.25;4998842;28;20461;-82
2023/01/13 09:55:25;;;;;;;0.80;0.30;;;;;;;8.74;100.00;153603.28;4992265;28;20879;-83
2023/01/13 09:57:52;;;;;;;0.70;0.30;;;;;;;8.68;100.00;153589.13;4996376;28;20471;-82
2023/01/13 10:00:22;;;;;;;1.00;0.37;;;;;;;8.71;100.00;153595.56;4997418;28;20494;-83
2023/01/13 10:03:09;;;;;;;0.70;0.30;;;;;;;8.70;100.00;153592.97;4982119;28;20457;-83
2023/01/13 10:05:37;;;;;;;0.87;0.47;;;;;;;8.66;100.00;153583.91;4996965;28;20557;-82
2023/01/13 10:08:09;;;;;;;0.67;0.30;;;;;;;8.69;100.00;153591.66;4995697;28;20447;-82
2023/01/13 10:10:40;;;;;;;0.80;0.30;;;;;;;8.63;100.00;153574.88;4983756;28;20454;-82
2023/01/13 10:13:14;;;;;;;3.47;0.50;;;;;;;8.62;100.00;153572.28;4996725;28;20462;-82
2023/01/13 10:15:46;;;;;;;0.60;0.20;;;;;;;8.53;100.00;153550.28;4980306;28;21032;-83
2023/01/13 10:18:18;;;;;;;0.70;0.30;;;;;;;8.56;100.00;153558.06;4980925;28;20986;-83
2023/01/13 10:21:00;;;;;;;0.90;0.40;;;;;;;8.58;100.00;153564.53;4994019;28;20462;-83
2023/01/13 10:23:44;;;;;;;0.80;0.40;;;;;;;8.50;100.00;153542.53;4980876;28;20524;-83
2023/01/13 10:26:24;;;;;;;0.60;0.20;;;;;;;8.51;100.00;153546.44;4992668;28;20450;-82
2023/01/13 10:28:54;;;;;;;1.00;0.50;;;;;;;8.46;100.00;153533.53;4980034;28;20452;-82
2023/01/13 10:31:22;;;;;;;1.30;0.53;;;;;;;8.54;100.00;153552.91;4981428;28;20458;-83
2023/01/13 10:33:58;;;;;;;1.23;0.40;;;;;;;8.62;100.00;153572.28;4985681;28;20568;-82
2023/01/13 10:36:24;;;;;;;1.00;0.40;;;;;;;8.70;100.00;153592.97;4980183;28;21038;-83
2023/01/13 10:38:52;;;;;;;0.70;0.30;;;;;;;8.87;100.00;153638.22;4982647;28;20572;-82
2023/01/13 10:41:23;;;;;;;0.80;0.40;;;;;;;8.91;100.00;153647.28;4994515;28;20463;-83
2023/01/13 10:44:02;;;;;;;1.03;0.30;;;;;;;8.98;100.00;153665.34;4995304;28;20936;-82
2023/01/13 10:46:30;;;;;;;0.87;0.30;;;;;;;9.06;100.00;153687.34;4981845;28;20466;-82
2023/01/13 10:49:00;;;;;;;0.70;0.30;;;;;;;9.02;100.00;153677.03;4994779;28;20533;-82
2023/01/13 10:51:28;;;;;;;1.17;0.50;;;;;;;9.01;100.00;153673.13;4979053;28;20485;-82
2023/01/13 10:53:58;;;;;;;0.60;0.20;;;;;;;9.00;100.00;153670.56;4996234;28;20739;-82
2023/01/13 10:56:27;;;;;;;0.80;0.33;;;;;;;8.91;100.00;153647.28;4996145;28;21926;-82
2023/01/13 10:59:11;;;;;;;1.63;0.87;;;;;;;8.74;100.00;153604.59;4995439;28;20479;-82
2023/01/13 11:01:38;;;;;;;1.70;0.43;;;;;;;8.73;100.00;153602.03;4982026;28;20458;-83
2023/01/13 11:04:25;;;;;;;1.50;0.50;;;;;;;8.67;100.00;153586.50;4981881;28;20572;-82
2023/01/13 11:06:52;;;;;;;0.90;0.40;;;;;;;8.62;100.00;153572.28;4988171;28;20808;-82
2023/01/13 11:09:19;;;;;;;1.20;0.50;;;;;;;8.56;100.00;153559.38;4989294;28;20447;-82
2023/01/13 11:11:49;;;;;;;1.27;0.30;;;;;;;8.48;100.00;153537.38;4998645;28;20545;-83
2023/01/13 11:14:38;;;;;;;1.57;0.57;;;;;;;8.42;100.00;153523.16;4994286;28;20451;-82
2023/01/13 11:17:27;;;;;;;1.83;0.60;;;;;;;8.29;100.00;153489.56;4981459;28;20609;-82
2023/01/13 11:20:00;;;;;;;1.07;0.40;;;;;;;8.27;100.00;153484.41;4969651;28;20497;-82
2023/01/13 11:22:30;;;;;;;0.80;0.33;;;;;;;8.27;100.00;153484.41;4979670;28;20446;-82
2023/01/13 11:25:00;;;;;;;0.93;0.30;;;;;;;8.22;100.00;153470.13;4980952;28;20554;-83
2023/01/13 11:27:38;;;;;;;1.27;0.40;;;;;;;8.20;100.00;153464.97;4980418;28;20917;-82
2023/01/13 11:30:11;;;;;;;2.83;0.77;;;;;;;8.17;100.00;153458.50;4981572;28;20799;-82
2023/01/13 11:32:44;;;;;;;1.70;0.90;;;;;;;8.16;100.00;153454.59;4997316;28;20581;-82
2023/01/13 11:35:17;;;;;;;1.53;0.47;;;;;;;8.13;100.00;153448.13;4985133;28;20585;-82
2023/01/13 11:37:49;;;;;;;0.70;0.30;;;;;;;8.18;100.00;153461.06;4993183;28;20490;-82
2023/01/13 11:40:21;;;;;;;1.47;0.33;;;;;;;8.16;100.00;153454.59;4982051;28;20585;-82
2023/01/13 11:42:52;;;;;;;0.90;0.50;;;;;;;8.10;100.00;153440.38;4980520;28;20445;-82
2023/01/13 11:45:22;;;;;;;1.80;0.30;;;;;;;7.99;100.00;153412.00;4994850;28;20487;-82
2023/01/13 11:47:52;;;;;;;0.90;0.30;;;;;;;7.95;100.00;153402.94;4993811;28;20453;-82
2023/01/13 11:50:28;;;;;;;0.70;0.30;;;;;;;7.98;100.00;153409.41;4993385;28;20541;-82
2023/01/13 11:53:12;;;;;;;0.87;0.43;;;;;;;7.98;100.00;153409.41;4992755;28;20455;-82
2023/01/13 11:55:49;;;;;;;1.10;0.40;;;;;;;7.91;100.00;153391.31;4982134;28;20453;-83
2023/01/13 11:58:37;;;;;;;0.70;0.33;;;;;;;7.97;100.00;153406.78;4996460;28;20533;-82
2023/01/13 12:01:11;;;;;;;1.50;0.50;;;;;;;7.95;100.00;153401.63;4982826;28;20537;-82
2023/01/13 12:03:40;;;;;;;0.80;0.33;;;;;;;7.99;100.00;153412.00;4984986;28;20525;-82
2023/01/13 12:06:24;;;;;;;1.47;0.37;;;;;;;7.91;100.00;153391.31;4984510;28;20450;-82
2023/01/13 12:09:10;;;;;;;1.20;0.43;;;;;;;7.90;100.00;153388.72;4986357;28;20458;-82
2023/01/13 12:14:33;;;;;;;2.37;0.57;;;;;;;7.84;100.00;153374.50;4986868;28;20461;-82
2023/01/13 12:17:01;;;;;;;1.30;0.50;;;;;;;7.83;100.00;153370.66;4986108;28;20847;-83
2023/01/13 12:19:31;;;;;;;2.23;0.53;;;;;;;7.68;100.00;153331.84;5001448;28;20463;-83
2023/01/13 12:22:11;;;;;;;1.60;0.50;;;;;;;7.70;100.00;153337.06;5004273;28;20521;-82
2023/01/13 12:24:41;;;;;;;0.90;0.53;;;;;;;7.77;100.00;153355.13;5001544;28;20926;-82